createdAt,value
2022-08-12T00:00:16.915Z,24.30
2022-08-12T00:03:04.095Z,24.40
2022-08-12T00:06:00.393Z,24.40
2022-08-12T00:08:53.153Z,24.50
2022-08-12T00:11:40.095Z,24.30
2022-08-12T00:14:25.841Z,24.00
2022-08-12T00:17:12.352Z,24.00
2022-08-12T00:19:59.422Z,23.90
2022-08-12T00:22:46.127Z,23.90
2022-08-12T00:26:21.695Z,23.90
2022-08-12T00:29:02.145Z,24.00
2022-08-12T00:31:48.191Z,24.00
2022-08-12T00:34:34.765Z,23.80
2022-08-12T00:37:23.592Z,23.80
2022-08-12T00:40:11.271Z,23.70
2022-08-12T00:42:40.209Z,23.70
2022-08-12T00:45:08.300Z,23.80
2022-08-12T00:47:35.957Z,23.80
2022-08-12T00:50:04.255Z,23.70
2022-08-12T00:52:34.574Z,23.70
2022-08-12T00:55:04.636Z,23.60
2022-08-12T00:57:37.607Z,23.50
2022-08-12T01:00:08.966Z,23.50
2022-08-12T01:02:39.407Z,23.50
2022-08-12T01:05:30.759Z,23.50
2022-08-12T01:08:18.501Z,23.50
2022-08-12T01:11:06.023Z,23.50
2022-08-12T01:13:34.884Z,23.50
2022-08-12T01:16:04.532Z,23.40
2022-08-12T01:18:33.873Z,23.40
2022-08-12T01:21:12.184Z,23.40
2022-08-12T01:24:29.455Z,23.40
2022-08-12T01:26:55.064Z,23.30
2022-08-12T01:29:26.792Z,23.10
2022-08-12T01:31:58.541Z,23.00
2022-08-12T01:34:36.466Z,22.90
2022-08-12T01:37:07.630Z,22.90
2022-08-12T01:40:31.483Z,22.80
2022-08-12T01:42:32.628Z,22.80
2022-08-12T01:45:02.273Z,22.80
2022-08-12T01:47:43.019Z,22.80
2022-08-12T01:52:37.230Z,22.80
2022-08-12T01:55:07.368Z,22.70
2022-08-12T01:57:58.670Z,22.70
2022-08-12T02:00:55.367Z,22.70
2022-08-12T02:04:00.557Z,22.60
2022-08-12T02:06:55.246Z,22.50
2022-08-12T02:09:55.215Z,22.60
2022-08-12T02:12:39.061Z,22.50
2022-08-12T02:15:15.621Z,22.40
2022-08-12T02:17:59.756Z,22.40
2022-08-12T02:20:51.689Z,22.40
2022-08-12T02:23:23.263Z,22.40
2022-08-12T02:25:55.643Z,22.40
2022-08-12T02:28:23.301Z,22.40
2022-08-12T02:30:50.984Z,22.40
2022-08-12T02:33:19.788Z,22.40
2022-08-12T02:35:47.979Z,22.30
2022-08-12T02:38:16.075Z,22.30
2022-08-12T02:40:47.597Z,22.30
2022-08-12T02:43:24.558Z,22.20
2022-08-12T02:45:55.352Z,22.10
2022-08-12T02:48:27.249Z,22.00
2022-08-12T02:50:57.677Z,22.00
2022-08-12T02:53:26.064Z,21.90
2022-08-12T02:55:53.901Z,21.90
2022-08-12T02:58:32.906Z,22.00
2022-08-12T03:01:09.834Z,21.90
2022-08-12T03:03:40.074Z,21.90
2022-08-12T03:06:13.167Z,21.80
2022-08-12T03:08:42.260Z,21.70
2022-08-12T03:11:16.440Z,21.70
2022-08-12T03:13:51.120Z,21.80
2022-08-12T03:16:20.190Z,21.80
2022-08-12T03:18:49.178Z,21.80
2022-08-12T03:21:17.213Z,21.80
2022-08-12T03:24:05.916Z,21.80
2022-08-12T03:26:35.765Z,21.80
2022-08-12T03:29:06.809Z,21.70
2022-08-12T03:31:34.075Z,21.70
2022-08-12T03:34:03.273Z,21.70
2022-08-12T03:36:35.266Z,21.60
2022-08-12T03:39:35.994Z,21.50
2022-08-12T03:42:25.642Z,21.60
2022-08-12T03:45:32.242Z,21.50
2022-08-12T03:48:23.928Z,21.50
2022-08-12T03:51:10.378Z,21.40
2022-08-12T03:53:56.916Z,21.40
2022-08-12T03:56:42.797Z,21.40
2022-08-12T03:59:28.669Z,21.30
2022-08-12T04:01:58.217Z,21.30
2022-08-12T04:04:26.791Z,21.30
2022-08-12T04:06:54.127Z,21.30
2022-08-12T04:09:22.481Z,21.30
2022-08-12T04:12:08.724Z,21.30
2022-08-12T04:14:36.258Z,21.20
2022-08-12T04:17:05.019Z,21.20
2022-08-12T04:19:32.294Z,21.20
2022-08-12T04:22:03.262Z,21.20
2022-08-12T04:24:35.009Z,21.20
2022-08-12T04:27:05.469Z,21.20
2022-08-12T04:30:29.170Z,21.20
2022-08-12T04:32:22.915Z,21.20
2022-08-12T04:34:50.514Z,21.30
2022-08-12T04:37:17.635Z,21.30
2022-08-12T04:39:45.974Z,21.40
2022-08-12T04:42:13.360Z,21.40
2022-08-12T04:44:42.503Z,21.40
2022-08-12T04:47:11.792Z,21.50
2022-08-12T04:49:41.099Z,21.50
2022-08-12T04:52:09.321Z,21.60
2022-08-12T04:54:38.081Z,21.70
2022-08-12T04:57:10.078Z,21.80
2022-08-12T04:59:48.132Z,21.90
2022-08-12T05:02:21.102Z,22.00
2022-08-12T05:04:51.821Z,22.20
2022-08-12T05:07:19.659Z,22.30
2022-08-12T05:10:00.066Z,22.80
2022-08-12T05:12:34.702Z,23.80
2022-08-12T05:15:02.082Z,25.30
2022-08-12T05:17:29.226Z,26.60
2022-08-12T05:21:51.632Z,27.80
2022-08-12T05:24:18.914Z,29.80
2022-08-12T05:26:47.190Z,30.80
2022-08-12T05:30:06.334Z,31.70
2022-08-12T05:32:04.364Z,32.50
2022-08-12T05:34:32.417Z,33.10
2022-08-12T05:37:03.721Z,33.80
2022-08-12T05:39:30.894Z,34.20
2022-08-12T05:41:57.998Z,34.70
2022-08-12T05:44:25.348Z,35.10
2022-08-12T05:46:52.463Z,35.40
2022-08-12T05:49:19.517Z,35.90
2022-08-12T05:51:46.788Z,35.90
2022-08-12T05:54:16.375Z,36.40
2022-08-12T05:56:47.069Z,36.70
2022-08-12T05:59:14.549Z,36.60
2022-08-12T06:02:11.641Z,36.90
2022-08-12T06:04:30.114Z,37.30
2022-08-12T06:06:57.310Z,37.40
2022-08-12T06:09:28.651Z,37.90
2022-08-12T06:12:05.680Z,38.00
2022-08-12T06:14:36.253Z,38.50
2022-08-12T06:17:05.030Z,38.60
2022-08-12T06:20:22.773Z,38.90
2022-08-12T06:22:19.597Z,39.50
2022-08-12T06:24:49.741Z,40.00
2022-08-12T06:27:18.681Z,39.30
2022-08-12T06:30:08.935Z,39.70
2022-08-12T06:32:33.334Z,40.10
2022-08-12T06:35:26.769Z,40.70
2022-08-12T06:37:56.382Z,40.80
2022-08-12T06:40:44.476Z,41.10
2022-08-12T06:43:13.098Z,40.80
2022-08-12T06:45:49.568Z,41.10
2022-08-12T06:48:17.311Z,41.30
2022-08-12T06:50:44.548Z,41.60
2022-08-12T06:53:12.067Z,42.00
2022-08-12T06:55:57.670Z,42.10
2022-08-12T06:58:26.430Z,43.00
2022-08-12T07:00:54.616Z,43.00
2022-08-12T07:03:25.656Z,42.80
2022-08-12T07:05:52.937Z,42.40
2022-08-12T07:08:20.641Z,42.60
2022-08-12T07:10:57.349Z,42.40
2022-08-12T07:13:25.124Z,42.70
2022-08-12T07:15:55.480Z,42.80
2022-08-12T07:18:27.646Z,42.60
2022-08-12T07:20:55.009Z,42.80
2022-08-12T07:23:22.254Z,43.30
2022-08-12T07:25:53.097Z,43.40
2022-08-12T07:28:25.162Z,43.40
2022-08-12T07:30:54.023Z,43.70
2022-08-12T07:33:23.868Z,44.20
2022-08-12T07:35:54.018Z,44.90
2022-08-12T07:38:29.853Z,45.30
2022-08-12T07:41:03.465Z,44.10
2022-08-12T07:43:31.381Z,43.20
2022-08-12T07:45:59.148Z,43.30
2022-08-12T07:48:27.001Z,43.80
2022-08-12T07:50:54.243Z,43.80
2022-08-12T07:53:21.371Z,43.40
2022-08-12T07:55:48.829Z,43.30
2022-08-12T07:58:17.332Z,43.80
2022-08-12T08:00:45.486Z,43.30
2022-08-12T08:03:13.344Z,43.20
2022-08-12T08:05:46.310Z,43.00
2022-08-12T08:08:14.480Z,42.50
2022-08-12T08:10:41.776Z,42.30
2022-08-12T08:13:11.805Z,42.00
2022-08-12T08:18:28.817Z,41.20
2022-08-12T08:20:56.852Z,40.90
2022-08-12T08:23:46.584Z,39.60
2022-08-12T08:26:15.449Z,38.60
2022-08-12T08:28:42.609Z,37.80
2022-08-12T08:31:14.283Z,36.90
2022-08-12T08:34:09.391Z,36.30
2022-08-12T08:36:29.105Z,36.00
2022-08-12T08:38:58.648Z,35.80
2022-08-12T08:42:16.790Z,35.40
2022-08-12T08:44:39.511Z,34.50
2022-08-12T08:47:11.045Z,34.10
2022-08-12T08:49:39.438Z,33.80
2022-08-12T08:52:08.471Z,33.50
2022-08-12T08:54:37.600Z,33.60
2022-08-12T08:57:08.061Z,33.90
2022-08-12T08:59:35.888Z,34.20
2022-08-12T09:02:03.559Z,34.00
2022-08-12T09:05:12.799Z,34.40
2022-08-12T09:10:09.242Z,35.10
2022-08-12T09:13:09.266Z,35.50
2022-08-12T09:15:55.835Z,35.70
2022-08-12T09:18:30.898Z,36.70
2022-08-12T09:21:03.821Z,37.50
2022-08-12T09:23:57.804Z,38.20
2022-08-12T09:26:22.843Z,38.80
2022-08-12T09:28:56.323Z,39.00
2022-08-12T09:32:06.178Z,39.90
2022-08-12T09:34:25.701Z,40.60
2022-08-12T09:37:02.570Z,40.70
2022-08-12T09:40:05.883Z,41.00
2022-08-12T09:43:04.870Z,40.80
2022-08-12T09:46:11.550Z,41.40
2022-08-12T09:48:26.641Z,41.60
2022-08-12T09:51:02.713Z,41.20
2022-08-12T09:53:36.482Z,41.30
2022-08-12T09:57:00.685Z,41.00
2022-08-12T09:59:01.833Z,41.60
2022-08-12T10:01:29.859Z,42.10
2022-08-12T10:04:05.805Z,42.30
2022-08-12T10:06:36.588Z,42.10
2022-08-12T10:09:08.344Z,42.60
2022-08-12T10:12:09.975Z,43.30
2022-08-12T10:14:50.453Z,43.40
2022-08-12T10:17:22.845Z,43.90
2022-08-12T10:19:52.508Z,43.40
2022-08-12T10:22:36.830Z,43.10
2022-08-12T10:26:35.789Z,43.20
2022-08-12T10:28:36.568Z,42.50
2022-08-12T10:31:06.577Z,42.90
2022-08-12T10:34:05.324Z,43.90
2022-08-12T10:36:40.372Z,43.90
2022-08-12T10:40:00.654Z,43.40
2022-08-12T10:42:29.281Z,42.80
2022-08-12T10:45:01.191Z,43.20
2022-08-12T10:48:19.770Z,42.70
2022-08-12T10:50:28.469Z,42.10
2022-08-12T10:53:01.658Z,42.80
2022-08-12T10:55:28.908Z,43.10
2022-08-12T10:58:14.096Z,42.80
2022-08-12T11:01:26.028Z,44.00
2022-08-12T11:04:27.789Z,44.50
2022-08-12T11:07:06.267Z,43.10
2022-08-12T11:09:10.447Z,42.90
2022-08-12T11:12:36.876Z,42.10
2022-08-12T11:14:50.414Z,41.90
2022-08-12T11:17:52.259Z,41.40
2022-08-12T11:20:06.607Z,41.10
2022-08-12T11:22:35.361Z,41.50
2022-08-12T11:25:10.380Z,41.40
2022-08-12T11:27:38.681Z,41.70
2022-08-12T11:30:31.039Z,41.70
2022-08-12T11:32:59.029Z,41.70
2022-08-12T11:35:33.097Z,41.10
2022-08-12T11:38:05.014Z,41.20
2022-08-12T11:40:33.725Z,40.90
2022-08-12T11:43:19.389Z,40.70
2022-08-12T11:45:52.952Z,40.90
2022-08-12T11:48:27.109Z,40.80
2022-08-12T11:50:55.223Z,40.80
2022-08-12T11:53:57.708Z,41.20
2022-08-12T11:56:17.631Z,41.20
2022-08-12T12:01:58.789Z,40.00
2022-08-12T12:04:25.890Z,40.10
2022-08-12T12:07:06.651Z,40.50
2022-08-12T12:09:52.639Z,40.20
2022-08-12T12:12:23.549Z,39.80
2022-08-12T12:14:55.028Z,39.40
2022-08-12T12:17:25.576Z,39.80
2022-08-12T12:19:53.648Z,40.10
2022-08-12T12:22:23.489Z,40.70
2022-08-12T12:24:59.058Z,41.00
2022-08-12T12:28:05.407Z,40.70
2022-08-12T12:30:33.776Z,40.40
2022-08-12T12:33:03.254Z,39.20
2022-08-12T12:36:06.185Z,39.10
2022-08-12T12:38:18.051Z,38.70
2022-08-12T12:40:50.280Z,39.30
2022-08-12T12:43:28.711Z,39.20
2022-08-12T12:46:06.271Z,38.40
2022-08-12T12:48:41.402Z,38.20
2022-08-12T12:51:48.927Z,38.20
2022-08-12T12:54:08.257Z,38.50
2022-08-12T12:56:47.774Z,38.60
2022-08-12T12:59:56.478Z,39.10
2022-08-12T13:02:08.693Z,38.90
2022-08-12T13:04:37.997Z,38.90
2022-08-12T13:07:06.703Z,39.00
2022-08-12T13:09:36.035Z,38.90
2022-08-12T13:12:08.080Z,38.50
2022-08-12T13:14:39.651Z,37.90
2022-08-12T13:17:11.328Z,37.60
2022-08-12T13:19:48.286Z,37.30
2022-08-12T13:22:21.461Z,37.40
2022-08-12T13:24:55.663Z,37.00
2022-08-12T13:27:35.737Z,37.30
2022-08-12T13:30:06.809Z,37.30
2022-08-12T13:32:39.571Z,37.00
2022-08-12T13:35:20.204Z,36.50
2022-08-12T13:37:58.132Z,36.80
2022-08-12T13:40:27.714Z,36.90
2022-08-12T13:42:58.999Z,36.80
2022-08-12T13:45:29.067Z,37.20
2022-08-12T13:47:57.594Z,37.40
2022-08-12T13:50:32.415Z,37.90
2022-08-12T13:53:01.243Z,38.30
2022-08-12T13:55:59.793Z,38.20
2022-08-12T13:58:30.821Z,37.60
2022-08-12T14:01:04.594Z,37.80
2022-08-12T14:03:50.658Z,37.60
2022-08-12T14:06:21.585Z,37.80
2022-08-12T14:08:53.216Z,37.60
2022-08-12T14:11:27.819Z,37.20
2022-08-12T14:14:05.977Z,36.80
2022-08-12T14:16:49.281Z,36.80
2022-08-12T14:19:24.339Z,36.70
2022-08-12T14:21:59.425Z,36.80
2022-08-12T14:24:35.346Z,36.60
2022-08-12T14:27:03.756Z,36.40
2022-08-12T14:29:56.312Z,36.60
2022-08-12T14:32:24.669Z,36.50
2022-08-12T14:34:52.926Z,36.40
2022-08-12T14:37:58.065Z,36.30
2022-08-12T14:40:18.672Z,36.20
2022-08-12T14:42:50.545Z,36.20
2022-08-12T14:45:22.902Z,36.00
2022-08-12T14:47:58.731Z,36.50
2022-08-12T14:50:58.780Z,36.50
2022-08-12T14:59:23.659Z,36.30
2022-08-12T15:01:52.208Z,36.60
2022-08-12T15:04:27.783Z,36.10
2022-08-12T15:06:55.256Z,35.90
2022-08-12T15:09:29.255Z,35.90
2022-08-12T15:12:03.428Z,35.70
2022-08-12T15:14:31.544Z,35.60
2022-08-12T15:17:00.217Z,36.10
2022-08-12T15:20:30.711Z,36.10
2022-08-12T15:22:35.466Z,35.90
2022-08-12T15:25:08.098Z,35.90
2022-08-12T15:28:05.596Z,36.30
2022-08-12T15:30:31.293Z,36.20
2022-08-12T15:32:59.557Z,35.40
2022-08-12T15:35:38.174Z,35.10
2022-08-12T15:38:10.520Z,35.00
2022-08-12T15:40:48.307Z,35.10
2022-08-12T15:44:14.075Z,35.10
2022-08-12T15:46:05.746Z,35.10
2022-08-12T15:48:33.961Z,34.90
2022-08-12T15:51:05.389Z,34.90
2022-08-12T15:53:54.817Z,35.10
2022-08-12T15:56:29.619Z,35.20
2022-08-12T15:59:03.362Z,35.70
2022-08-12T16:01:34.868Z,35.60
2022-08-12T16:04:03.117Z,35.40
2022-08-12T16:09:56.226Z,35.10
2022-08-12T16:12:14.810Z,35.40
2022-08-12T16:14:42.186Z,35.70
2022-08-12T16:17:14.878Z,35.20
2022-08-12T16:20:02.877Z,35.00
2022-08-12T16:22:30.101Z,34.80
2022-08-12T16:24:57.595Z,34.90
2022-08-12T16:27:29.842Z,34.70
2022-08-12T16:30:07.101Z,34.90
2022-08-12T16:32:36.035Z,34.80
2022-08-12T16:35:06.608Z,34.50
2022-08-12T16:38:25.761Z,34.80
2022-08-12T16:40:23.510Z,35.00
2022-08-12T16:42:53.603Z,35.00
2022-08-12T16:45:32.315Z,35.10
2022-08-12T16:48:33.665Z,34.80
2022-08-12T16:51:04.839Z,34.80
2022-08-12T16:53:43.842Z,34.50
2022-08-12T16:56:14.338Z,34.70
2022-08-12T16:58:44.036Z,34.80
2022-08-12T17:01:15.921Z,34.50
2022-08-12T17:03:52.385Z,34.00
2022-08-12T17:06:22.665Z,33.90
2022-08-12T17:09:08.842Z,34.20
2022-08-12T17:11:49.198Z,34.40
2022-08-12T17:14:23.357Z,34.40
2022-08-12T17:16:52.704Z,34.30
2022-08-12T17:19:20.657Z,34.20
2022-08-12T17:22:09.846Z,34.00
2022-08-12T17:24:44.112Z,33.90
2022-08-12T17:27:22.701Z,33.70
2022-08-12T17:30:02.567Z,33.50
2022-08-12T17:32:35.774Z,33.30
2022-08-12T17:35:30.151Z,33.20
2022-08-12T17:38:06.062Z,33.10
2022-08-12T17:40:36.832Z,33.20
2022-08-12T17:43:51.895Z,33.00
2022-08-12T17:46:00.228Z,33.10
2022-08-12T17:48:34.321Z,32.90
2022-08-12T17:51:15.616Z,32.70
2022-08-12T17:54:11.846Z,32.50
2022-08-12T17:56:33.149Z,32.50
2022-08-12T17:59:01.029Z,32.30
2022-08-12T18:01:34.885Z,32.40
2022-08-12T18:04:20.828Z,32.10
2022-08-12T18:06:50.916Z,32.10
2022-08-12T18:09:19.332Z,32.00
2022-08-12T18:12:08.293Z,31.90
2022-08-12T18:14:38.311Z,31.90
2022-08-12T18:17:11.972Z,31.90
2022-08-12T18:20:05.201Z,31.90
2022-08-12T18:22:33.270Z,31.80
2022-08-12T18:25:03.859Z,31.70
2022-08-12T18:27:44.445Z,31.60
2022-08-12T18:30:28.923Z,31.60
2022-08-12T18:33:03.921Z,31.70
2022-08-12T18:35:47.134Z,31.50
2022-08-12T18:38:22.183Z,31.60
2022-08-12T18:41:10.293Z,31.50
2022-08-12T18:43:58.418Z,31.40
2022-08-12T18:46:40.802Z,31.30
2022-08-12T18:49:17.980Z,31.10
2022-08-12T18:51:55.615Z,31.00
2022-08-12T18:54:35.337Z,31.00
2022-08-12T18:57:15.491Z,30.90
2022-08-12T19:00:01.992Z,30.70
2022-08-12T19:02:36.290Z,30.60
2022-08-12T19:05:14.331Z,30.40
2022-08-12T19:07:58.060Z,30.20
2022-08-12T19:10:29.333Z,30.10
2022-08-12T19:13:23.985Z,30.00
2022-08-12T19:15:53.920Z,29.90
2022-08-12T19:18:29.334Z,29.60
2022-08-12T19:21:00.329Z,29.50
2022-08-12T19:23:35.704Z,29.40
2022-08-12T19:26:10.525Z,29.20
2022-08-12T19:28:41.276Z,29.10
2022-08-12T19:31:56.927Z,28.90
2022-08-12T19:37:22.977Z,28.80
2022-08-12T19:40:09.495Z,28.70
2022-08-12T19:42:53.493Z,28.60
2022-08-12T19:45:43.982Z,28.30
2022-08-12T19:48:16.829Z,28.30
2022-08-12T19:50:50.428Z,28.20
2022-08-12T19:53:22.822Z,28.10
2022-08-12T19:55:53.021Z,28.10
2022-08-12T19:58:22.428Z,28.10
2022-08-12T20:00:53.105Z,28.00
2022-08-12T20:03:39.146Z,27.90
2022-08-12T20:06:13.785Z,27.80
2022-08-12T20:08:48.731Z,27.60
2022-08-12T20:12:12.660Z,27.50
2022-08-12T20:14:10.109Z,27.40
2022-08-12T20:16:52.717Z,27.30
2022-08-12T20:19:24.546Z,27.30
2022-08-12T20:22:14.511Z,27.20
2022-08-12T20:24:45.376Z,27.20
2022-08-12T20:30:00.717Z,27.10
2022-08-12T20:32:29.789Z,27.10
2022-08-12T20:35:10.298Z,27.00
2022-08-12T20:38:06.715Z,26.80
2022-08-12T20:40:26.505Z,26.60
2022-08-12T20:42:55.657Z,26.50
2022-08-12T20:45:25.999Z,26.50
2022-08-12T20:48:12.575Z,26.50
2022-08-12T20:50:42.926Z,26.40
2022-08-12T20:53:26.583Z,26.30
2022-08-12T20:56:00.467Z,26.30
2022-08-12T20:58:28.887Z,26.20
2022-08-12T21:01:00.191Z,26.10
2022-08-12T21:03:52.863Z,26.00
2022-08-12T21:06:44.207Z,25.90
2022-08-12T21:09:13.419Z,25.80
2022-08-12T21:11:42.461Z,25.80
2022-08-12T21:14:13.380Z,25.70
2022-08-12T21:16:46.783Z,25.70
2022-08-12T21:19:22.642Z,25.70
2022-08-12T21:21:58.690Z,25.60
2022-08-12T21:24:32.431Z,25.60
2022-08-12T21:27:00.086Z,25.50
2022-08-12T21:29:32.152Z,25.50
2022-08-12T21:32:37.810Z,25.40
2022-08-12T21:34:56.911Z,25.30
2022-08-12T21:37:26.974Z,25.20
2022-08-12T21:39:56.219Z,25.10
2022-08-12T21:42:27.894Z,24.90
2022-08-12T21:45:45.502Z,24.80
2022-08-12T21:47:45.032Z,24.70
2022-08-12T21:50:13.591Z,24.60
2022-08-12T21:52:42.443Z,24.60
2022-08-12T21:55:17.693Z,24.60
2022-08-12T21:57:53.307Z,24.50
2022-08-12T22:00:23.872Z,24.50
2022-08-12T22:04:01.473Z,24.50
2022-08-12T22:06:26.099Z,24.50
2022-08-12T22:09:02.335Z,24.40
2022-08-12T22:11:42.156Z,24.30
2022-08-12T22:14:21.357Z,24.10
2022-08-12T22:16:51.193Z,24.10
2022-08-12T22:19:20.914Z,24.10
2022-08-12T22:21:53.152Z,24.10
2022-08-12T22:24:26.333Z,24.10
2022-08-12T22:26:57.299Z,24.10
2022-08-12T22:29:42.851Z,24.00
2022-08-12T22:32:11.541Z,23.90
2022-08-12T22:34:44.454Z,23.80
2022-08-12T22:37:19.607Z,23.80
2022-08-12T22:39:49.069Z,23.80
2022-08-12T22:42:35.981Z,23.90
2022-08-12T22:45:23.309Z,23.90
2022-08-12T22:47:55.108Z,23.90
2022-08-12T22:50:28.766Z,23.90
2022-08-12T22:53:17.157Z,23.90
2022-08-12T22:55:59.335Z,23.90
2022-08-12T22:58:33.665Z,23.90
2022-08-12T23:01:02.400Z,23.80
2022-08-12T23:03:48.178Z,23.80
2022-08-12T23:06:21.357Z,23.70
2022-08-12T23:08:48.689Z,23.70
2022-08-12T23:11:17.249Z,23.70
2022-08-12T23:13:56.835Z,23.70
2022-08-12T23:16:30.909Z,23.70
2022-08-12T23:19:09.300Z,23.70
2022-08-12T23:22:03.413Z,23.60
2022-08-12T23:24:29.214Z,23.60
2022-08-12T23:27:15.827Z,23.60
2022-08-12T23:30:17.348Z,23.50
2022-08-12T23:32:35.919Z,23.50
2022-08-12T23:35:06.586Z,23.50
2022-08-12T23:37:47.810Z,23.40
2022-08-12T23:40:22.390Z,23.40
2022-08-12T23:42:54.277Z,23.40
2022-08-12T23:45:31.366Z,23.40
2022-08-12T23:47:59.852Z,23.40
2022-08-12T23:50:33.368Z,23.30
2022-08-12T23:53:06.730Z,23.20
2022-08-12T23:55:49.946Z,23.20
2022-08-12T23:58:23.339Z,23.10
